Aérodrome :
LOGIN :

S'inscrire | Disclaimer

   EN    FR    IT 

 










Légende :    VFR   VFR Marginal   IFR   IFR Intensif   IFR Très Intensif
Visi : 
Plafond : 
>= 8 km
>= 3000ft
5 à 8 km
1000 à 3000 ft
1500m à 5 km
500 à 1000 ft
800 à 1500m
200 à 500 ft
< 800m
< 200 ft
Symboles :   Orages  Brouillard  Fortes neiges  Fortes précipitations  Vent > 20 kt
SIGMETs :   Divers  Orages  Givrage  Turbulence  Onde Orograph.  Cendres Volcan.






- Altitude de l'aérodrome : 84 ft


LFBC - Cazaux

DERNIER METAR :
  • 281230Z AUTO 23009KT 9999 BKN020 OVC028 14/11 Q1019 NOSIG

METARs EXPIRÉS :
  • 281200Z AUTO 23012KT 9999 SCT019 OVC028 14/11 Q1020 NOSIG
  • 281130Z AUTO 22012KT 9999 BKN017 BKN023 OVC029 15/11 Q1020 NOSIG
  • 281100Z AUTO 22010KT 200V260 9999 BKN016 BKN022 BKN029 14/12 Q1020 NOSIG
  • 281030Z AUTO 23008KT 9999 BKN012 BKN024 BKN030 14/12 Q1020 BECMG SCT010 BKN015 BKN040
  • 281000Z AUTO 25006KT 9000 SCT010 BKN017 BKN024 13/12 Q1020 NOSIG

TAF TAF LFBC
Valide du 28 à 09h jusqu'au 29 à 09h UTC


280800Z 2809/2909 25006KT 9999 BKN008 OVC012
BECMG 2810/2812 22010KT SCT010 BKN015 BKN040
BECMG 2816/2818 13004KT
BECMG 2904/2906 24020G35KT 4000 -RA
PROB30
TEMPO 2906/2909 24025G45KT



MET'MAP, la Météo Aéronautique d'un coup d'oeil ! - Copyright ORBIFLY Décembre 2007 - Disclaimer

ORBIFLY MET'MAP TEAM :

Programmation & Développement : Alexandra Zaïnal
Sur une idée originale de : Baudouin d'Aumeries
Assistance à la programmation : Marc-Olivier Méhu
Soutien technique & logistique : Manuel Goepfert

Contact : metmap@orbifly.com




SOURCES & CREDITS :

   NOAA